createdAt,value
2016-12-22T00:00:43.748Z,49.99
2016-12-22T00:01:44.088Z,49.79
2016-12-22T00:02:43.807Z,49.6
2016-12-22T00:03:44.132Z,49.6
2016-12-22T00:04:43.853Z,49.7
2016-12-22T00:05:44.186Z,49.51
2016-12-22T00:06:43.907Z,49.38
2016-12-22T00:07:43.939Z,49.19
2016-12-22T00:08:44.272Z,49.22
2016-12-22T00:09:43.989Z,49.22
2016-12-22T00:10:44.011Z,49.02
2016-12-22T00:11:44.050Z,49.22
2016-12-22T00:12:44.071Z,49.58
2016-12-22T00:13:44.100Z,49.48
2016-12-22T00:14:44.428Z,49.48
2016-12-22T00:15:44.461Z,49.38
2016-12-22T00:16:44.178Z,49.48
2016-12-22T00:17:44.518Z,49.48
2016-12-22T00:18:44.239Z,49.58
2016-12-22T00:19:44.260Z,49.38
2016-12-22T00:20:44.285Z,49.29
2016-12-22T00:21:44.313Z,49.29
2016-12-22T00:22:44.351Z,49.48
2016-12-22T00:23:44.682Z,49.68
2016-12-22T00:24:44.708Z,49.1
2016-12-22T00:25:44.727Z,49
2016-12-22T00:26:44.457Z,49.19
2016-12-22T00:27:44.785Z,49.1
2016-12-22T00:28:44.811Z,49.1
2016-12-22T00:29:44.540Z,49.38
2016-12-22T00:30:44.564Z,48.9
2016-12-22T00:31:44.884Z,48.9
2016-12-22T00:32:44.922Z,48.9
2016-12-22T00:33:44.946Z,49.1
2016-12-22T00:34:44.975Z,49.1
2016-12-22T00:35:44.696Z,48.9
2016-12-22T00:36:44.724Z,48.81
2016-12-22T00:37:44.754Z,49
2016-12-22T00:38:45.074Z,48.71
2016-12-22T00:39:44.802Z,48.9
2016-12-22T00:40:45.140Z,49
2016-12-22T00:41:45.160Z,49.1
2016-12-22T00:42:45.184Z,48.9
2016-12-22T00:43:44.914Z,49
2016-12-22T00:44:45.234Z,48.9
2016-12-22T00:45:45.270Z,48.9
2016-12-22T00:46:45.287Z,49.36
2016-12-22T00:47:45.017Z,49.19
2016-12-22T00:48:45.349Z,49.29
2016-12-22T00:49:45.377Z,49.29
2016-12-22T00:50:45.099Z,49.1
2016-12-22T00:51:45.151Z,49.1
2016-12-22T00:52:45.155Z,49.29
2016-12-22T00:53:45.172Z,49.29
2016-12-22T00:54:45.518Z,49.29
2016-12-22T00:55:45.542Z,49.1
2016-12-22T00:56:45.568Z,49.19
2016-12-22T00:57:45.292Z,48.9
2016-12-22T00:58:45.621Z,48.81
2016-12-22T00:59:45.343Z,49.07
2016-12-22T01:00:45.365Z,49.17
2016-12-22T01:01:45.701Z,48.9
2016-12-22T01:02:45.419Z,48.88
2016-12-22T01:03:45.760Z,48.88
2016-12-22T01:04:45.785Z,48.88
2016-12-22T01:05:45.806Z,48.88
2016-12-22T01:06:45.858Z,49.07
2016-12-22T01:07:45.859Z,48.69
2016-12-22T01:08:45.875Z,48.9
2016-12-22T01:09:45.908Z,49.07
2016-12-22T01:10:45.942Z,49.07
2016-12-22T01:11:45.662Z,48.71
2016-12-22T01:12:45.996Z,48.69
2016-12-22T01:13:45.728Z,48.79
2016-12-22T01:14:46.052Z,48.79
2016-12-22T01:15:45.773Z,48.69
2016-12-22T01:16:45.797Z,48.59
2016-12-22T01:17:46.133Z,49.27
2016-12-22T01:18:45.851Z,48.97
2016-12-22T01:19:45.883Z,48.97
2016-12-22T01:20:45.908Z,48.97
2016-12-22T01:21:45.933Z,48.79
2016-12-22T01:22:46.270Z,48.59
2016-12-22T01:23:45.987Z,48.69
2016-12-22T01:24:46.007Z,48.88
2016-12-22T01:25:46.340Z,48.69
2016-12-22T01:26:46.065Z,48.59
2016-12-22T01:27:46.096Z,48.49
2016-12-22T01:28:46.118Z,48.59
2016-12-22T01:29:46.451Z,48.79
2016-12-22T01:30:46.480Z,48.69
2016-12-22T01:31:46.201Z,48.59
2016-12-22T01:32:46.217Z,48.79
2016-12-22T01:33:46.250Z,48.59
2016-12-22T01:34:46.282Z,48.59
2016-12-22T01:35:46.303Z,48.69
2016-12-22T01:36:46.337Z,48.49
2016-12-22T01:37:46.356Z,48.79
2016-12-22T01:38:46.689Z,48.79
2016-12-22T01:39:46.409Z,48.88
2016-12-22T01:40:46.438Z,48.79
2016-12-22T01:41:46.467Z,48.59
2016-12-22T01:42:46.496Z,48.88
2016-12-22T01:43:46.521Z,48.49
2016-12-22T01:44:46.549Z,48.88
2016-12-22T01:45:46.878Z,48.49
2016-12-22T01:46:46.911Z,48.49
2016-12-22T01:47:46.624Z,48.4
2016-12-22T01:48:46.956Z,48.49
2016-12-22T01:49:46.985Z,48.3
2016-12-22T01:50:46.705Z,48.49
2016-12-22T01:51:46.737Z,48.49
2016-12-22T01:52:47.063Z,48.49
2016-12-22T01:53:47.088Z,48.4
2016-12-22T01:54:47.117Z,48.3
2016-12-22T01:55:47.146Z,48.57
2016-12-22T01:56:46.867Z,48.47
2016-12-22T01:57:47.191Z,48.57
2016-12-22T01:58:46.923Z,48.4
2016-12-22T01:59:46.948Z,48.47
2016-12-22T02:00:46.977Z,48.38
2016-12-22T02:01:47.007Z,48.38
2016-12-22T02:02:47.030Z,48.38
2016-12-22T02:03:47.357Z,48.38
2016-12-22T02:04:47.384Z,48.08
2016-12-22T02:05:47.404Z,48.38
2016-12-22T02:06:47.445Z,48.47
2016-12-22T02:07:47.162Z,48.3
2016-12-22T02:08:47.495Z,48.08
2016-12-22T02:09:47.215Z,48.18
2016-12-22T02:10:47.548Z,48.18
2016-12-22T02:11:47.269Z,48.08
2016-12-22T02:12:47.607Z,48.18
2016-12-22T02:13:47.314Z,48.08
2016-12-22T02:14:47.647Z,48.57
2016-12-22T02:15:47.372Z,48.28
2016-12-22T02:16:47.704Z,48.08
2016-12-22T02:17:47.425Z,48.38
2016-12-22T02:18:47.758Z,48.38
2016-12-22T02:19:47.783Z,48.18
2016-12-22T02:20:47.812Z,48.47
2016-12-22T02:21:47.528Z,47.99
2016-12-22T02:22:47.864Z,48.38
2016-12-22T02:23:47.585Z,47.99
2016-12-22T02:24:47.914Z,48.18
2016-12-22T02:25:47.943Z,48.28
2016-12-22T02:26:47.671Z,48.28
2016-12-22T02:27:47.689Z,48.18
2016-12-22T02:28:48.031Z,47.61
2016-12-22T02:29:48.054Z,47.8
2016-12-22T02:30:47.768Z,48.08
2016-12-22T02:31:47.803Z,47.99
2016-12-22T02:32:48.124Z,47.61
2016-12-22T02:33:48.161Z,48.18
2016-12-22T02:34:47.877Z,47.61
2016-12-22T02:35:48.206Z,47.61
2016-12-22T02:36:47.927Z,48.08
2016-12-22T02:37:47.956Z,47.8
2016-12-22T02:38:48.280Z,47.41
2016-12-22T02:39:48.317Z,47.89
2016-12-22T02:40:48.337Z,47.89
2016-12-22T02:41:48.371Z,47.8
2016-12-22T02:42:48.091Z,47.8
2016-12-22T02:43:48.116Z,47.8
2016-12-22T02:44:48.144Z,47.99
2016-12-22T02:45:48.468Z,47.89
2016-12-22T02:46:48.202Z,47.51
2016-12-22T02:47:48.213Z,47.7
2016-12-22T02:48:48.558Z,47.7
2016-12-22T02:49:48.275Z,47.89
2016-12-22T02:50:48.296Z,47.7
2016-12-22T02:51:48.328Z,47.89
2016-12-22T02:52:48.661Z,47.13
2016-12-22T02:53:48.682Z,47.31
2016-12-22T02:54:48.404Z,47.41
2016-12-22T02:55:48.432Z,47.61
2016-12-22T02:56:48.496Z,47.41
2016-12-22T02:57:48.480Z,47.41
2016-12-22T02:58:48.509Z,47.41
2016-12-22T02:59:48.846Z,47.3
2016-12-22T03:00:48.874Z,47.61
2016-12-22T03:01:48.587Z,47.51
2016-12-22T03:02:48.920Z,47.22
2016-12-22T03:03:48.640Z,47.51
2016-12-22T03:04:48.669Z,47.39
2016-12-22T03:05:48.994Z,47.13
2016-12-22T03:06:48.719Z,47.22
2016-12-22T03:07:49.047Z,47.31
2016-12-22T03:08:48.772Z,47.58
2016-12-22T03:09:48.797Z,47.39
2016-12-22T03:10:48.825Z,47.13
2016-12-22T03:11:48.854Z,47.31
2016-12-22T03:12:49.183Z,47.22
2016-12-22T03:13:49.211Z,47.51
2016-12-22T03:14:48.933Z,47.39
2016-12-22T03:15:49.265Z,47.41
2016-12-22T03:16:49.294Z,47.31
2016-12-22T03:17:49.009Z,47.58
2016-12-22T03:18:49.039Z,47.58
2016-12-22T03:19:49.064Z,47.58
2016-12-22T03:20:49.400Z,47.49
2016-12-22T03:21:49.123Z,47.58
2016-12-22T03:22:49.150Z,47.49
2016-12-22T03:23:49.173Z,47.2
2016-12-22T03:24:49.499Z,47.3
2016-12-22T03:25:49.527Z,47.39
2016-12-22T03:26:49.552Z,47.39
2016-12-22T03:27:49.581Z,47.39
2016-12-22T03:28:49.303Z,47.2
2016-12-22T03:29:49.630Z,47.58
2016-12-22T03:30:49.355Z,47.1
2016-12-22T03:31:49.384Z,47.1
2016-12-22T03:32:49.713Z,47.1
2016-12-22T03:33:49.733Z,47.1
2016-12-22T03:34:49.762Z,47.2
2016-12-22T03:35:49.487Z,47.1
2016-12-22T03:36:49.511Z,47.3
2016-12-22T03:37:49.844Z,47.1
2016-12-22T03:38:49.565Z,47.39
2016-12-22T03:39:49.593Z,46.91
2016-12-22T03:40:49.921Z,47
2016-12-22T03:41:49.647Z,47
2016-12-22T03:42:49.971Z,47.1
2016-12-22T03:43:49.695Z,46.91
2016-12-22T03:44:50.020Z,46.91
2016-12-22T03:45:49.753Z,47
2016-12-22T03:46:50.078Z,46.72
2016-12-22T03:47:49.811Z,46.81
2016-12-22T03:48:49.827Z,46.62
2016-12-22T03:49:50.160Z,46.91
2016-12-22T03:50:50.188Z,46.62
2016-12-22T03:51:49.908Z,46.81
2016-12-22T03:52:50.229Z,46.72
2016-12-22T03:53:49.965Z,46.91
2016-12-22T03:54:49.987Z,46.91
2016-12-22T03:55:50.313Z,47.1
2016-12-22T03:56:50.337Z,46.91
2016-12-22T03:57:50.369Z,46.91
2016-12-22T03:58:50.081Z,46.91
2016-12-22T03:59:50.107Z,46.91
2016-12-22T04:00:50.139Z,46.81
2016-12-22T04:01:50.168Z,47
2016-12-22T04:02:50.502Z,46.91
2016-12-22T04:03:50.529Z,46.91
2016-12-22T04:04:50.550Z,46.91
2016-12-22T04:05:50.266Z,47.1
2016-12-22T04:06:50.291Z,46.81
2016-12-22T04:07:50.328Z,46.72
2016-12-22T04:08:50.352Z,46.72
2016-12-22T04:09:50.378Z,46.62
2016-12-22T04:10:50.406Z,46.62
2016-12-22T04:11:50.739Z,46.23
2016-12-22T04:12:50.451Z,46.53
2016-12-22T04:13:50.784Z,46.43
2016-12-22T04:14:50.507Z,46.33
2016-12-22T04:15:50.837Z,46.43
2016-12-22T04:16:50.565Z,46.33
2016-12-22T04:17:50.886Z,46.43
2016-12-22T04:18:50.924Z,46.53
2016-12-22T04:19:50.645Z,46.23
2016-12-22T04:20:50.670Z,46.33
2016-12-22T04:21:50.990Z,46.33
2016-12-22T04:22:51.018Z,46.81
2016-12-22T04:23:51.043Z,46.23
2016-12-22T04:24:50.776Z,46.43
2016-12-22T04:25:50.796Z,46.43
2016-12-22T04:26:50.826Z,46.43
2016-12-22T04:27:51.155Z,46.62
2016-12-22T04:28:50.871Z,46.33
2016-12-22T04:29:50.895Z,46.33
2016-12-22T04:30:50.928Z,46.23
2016-12-22T04:31:51.262Z,46.23
2016-12-22T04:32:51.290Z,46.62
2016-12-22T04:33:51.007Z,46.14
2016-12-22T04:34:51.040Z,46.43
2016-12-22T04:35:51.060Z,46.43
2016-12-22T04:36:51.393Z,46.53
2016-12-22T04:37:51.113Z,46.23
2016-12-22T04:38:51.139Z,46.14
2016-12-22T04:39:51.460Z,46.23
2016-12-22T04:40:51.188Z,46.14
2016-12-22T04:41:51.517Z,46.23
2016-12-22T04:42:51.551Z,46.23
2016-12-22T04:43:51.266Z,46.23
2016-12-22T04:44:51.598Z,46.14
2016-12-22T04:45:51.315Z,46.53
2016-12-22T04:46:51.348Z,46.53
2016-12-22T04:47:51.369Z,46.04
2016-12-22T04:48:51.707Z,46.53
2016-12-22T04:49:51.734Z,46.33
2016-12-22T04:50:51.455Z,46.23
2016-12-22T04:51:51.784Z,46.23
2016-12-22T04:52:51.500Z,46.33
2016-12-22T04:53:51.830Z,46.53
2016-12-22T04:54:51.550Z,46.53
2016-12-22T04:55:51.574Z,46.33
2016-12-22T04:56:51.604Z,46.23
2016-12-22T04:57:51.636Z,46.62
2016-12-22T04:58:51.657Z,46.62
2016-12-22T04:59:51.986Z,46.53
2016-12-22T05:00:52.018Z,46.23
2016-12-22T05:01:52.043Z,46.23
2016-12-22T05:02:52.063Z,46.14
2016-12-22T05:03:51.792Z,46.53
2016-12-22T05:04:51.821Z,46.53
2016-12-22T05:05:52.144Z,46.53
2016-12-22T05:06:51.879Z,46.53
2016-12-22T05:07:52.201Z,46.33
2016-12-22T05:08:52.224Z,46.04
2016-12-22T05:09:51.949Z,46.04
2016-12-22T05:10:51.965Z,46.21
2016-12-22T05:11:52.302Z,46.23
2016-12-22T05:12:52.028Z,46.23
2016-12-22T05:13:52.362Z,46.14
2016-12-22T05:14:52.389Z,46.14
2016-12-22T05:15:52.418Z,46.14
2016-12-22T05:16:52.434Z,46.12
2016-12-22T05:17:52.155Z,45.76
2016-12-22T05:18:52.188Z,45.54
2016-12-22T05:19:52.504Z,45.64
2016-12-22T05:20:52.241Z,45.73
2016-12-22T05:21:52.262Z,45.76
2016-12-22T05:22:52.284Z,46.02
2016-12-22T05:23:52.620Z,45.83
2016-12-22T05:24:52.335Z,45.92
2016-12-22T05:25:52.665Z,45.85
2016-12-22T05:26:52.395Z,45.83
2016-12-22T05:27:52.414Z,45.83
2016-12-22T05:28:52.743Z,46.12
2016-12-22T05:29:52.476Z,45.92
2016-12-22T05:30:52.497Z,45.92
2016-12-22T05:31:52.825Z,45.95
2016-12-22T05:32:52.545Z,45.66
2016-12-22T05:33:52.874Z,45.83
2016-12-22T05:34:52.599Z,45.83
2016-12-22T05:35:52.624Z,45.85
2016-12-22T05:36:52.956Z,45.66
2016-12-22T05:37:52.674Z,45.76
2016-12-22T05:38:52.699Z,45.95
2016-12-22T05:39:53.034Z,46.04
2016-12-22T05:40:52.758Z,45.85
2016-12-22T05:41:52.780Z,45.85
2016-12-22T05:42:52.805Z,45.28
2016-12-22T05:43:53.138Z,45.37
2016-12-22T05:44:53.171Z,45.37
2016-12-22T05:45:52.923Z,45.66
2016-12-22T05:46:52.912Z,45.47
2016-12-22T05:47:52.937Z,45.66
2016-12-22T05:48:53.269Z,45.66
2016-12-22T05:49:52.981Z,45.76
2016-12-22T05:50:53.022Z,45.85
2016-12-22T05:51:53.048Z,45.37
2016-12-22T05:52:53.372Z,44.99
2016-12-22T05:53:53.393Z,45.28
2016-12-22T05:54:53.149Z,45.18
2016-12-22T05:55:53.155Z,44.99
2016-12-22T05:56:53.467Z,45.08
2016-12-22T05:57:53.499Z,44.91
2016-12-22T05:58:53.528Z,44.89
2016-12-22T05:59:53.261Z,45.2
2016-12-22T06:00:53.275Z,45.29
2016-12-22T06:01:53.599Z,45.2
2016-12-22T06:02:53.328Z,45.2
2016-12-22T06:03:53.660Z,45.2
2016-12-22T06:04:53.685Z,44.91
2016-12-22T06:05:53.402Z,45.01
2016-12-22T06:06:53.430Z,45.1
2016-12-22T06:07:53.484Z,44.91
2016-12-22T06:08:53.492Z,44.72
2016-12-22T06:09:53.814Z,44.34
2016-12-22T06:10:53.542Z,44.53
2016-12-22T06:11:53.923Z,44.34
2016-12-22T06:12:53.591Z,44.62
2016-12-22T06:13:53.918Z,44.82
2016-12-22T06:14:53.636Z,44.72
2016-12-22T06:15:53.661Z,44.82
2016-12-22T06:16:53.702Z,44.72
2016-12-22T06:17:53.716Z,44.35
2016-12-22T06:18:53.753Z,44.17
2016-12-22T06:19:54.077Z,44.17
2016-12-22T06:20:53.801Z,44.07
2016-12-22T06:21:54.125Z,44.17
2016-12-22T06:22:54.146Z,43.97
2016-12-22T06:23:53.883Z,44.07
2016-12-22T06:24:54.208Z,44.45
2016-12-22T06:25:54.236Z,44.45
2016-12-22T06:26:53.956Z,44.45
2016-12-22T06:27:54.295Z,44.45
2016-12-22T06:28:54.012Z,44.26
2016-12-22T06:29:54.041Z,44.07
2016-12-22T06:30:54.373Z,44.07
2016-12-22T06:31:54.088Z,44.07
2016-12-22T06:32:54.111Z,44.09
2016-12-22T06:33:54.138Z,44.45
2016-12-22T06:34:54.171Z,44.45
2016-12-22T06:35:54.502Z,44.35
2016-12-22T06:36:54.530Z,44.48
2016-12-22T06:37:54.254Z,44.48
2016-12-22T06:38:54.570Z,44.09
2016-12-22T06:39:54.300Z,44.38
2016-12-22T06:40:54.332Z,44.38
2016-12-22T06:41:54.657Z,44.28
2016-12-22T06:42:54.686Z,44.19
2016-12-22T06:43:54.402Z,43.71
2016-12-22T06:44:54.735Z,43.9
2016-12-22T06:45:54.455Z,43.9
2016-12-22T06:46:54.480Z,43.71
2016-12-22T06:47:54.511Z,43.9
2016-12-22T06:48:54.540Z,43.8
2016-12-22T06:49:54.871Z,43.8
2016-12-22T06:50:54.595Z,43.99
2016-12-22T06:51:54.921Z,43.8
2016-12-22T06:52:54.641Z,43.9
2016-12-22T06:53:54.670Z,43.9
2016-12-22T06:54:54.695Z,43.99
2016-12-22T06:55:55.028Z,44.09
2016-12-22T06:56:54.747Z,44.09
2016-12-22T06:57:54.777Z,43.8
2016-12-22T06:58:54.806Z,43.71
2016-12-22T06:59:54.839Z,43.71
2016-12-22T07:00:55.171Z,44.09
2016-12-22T07:01:54.884Z,43.8
2016-12-22T07:02:54.905Z,43.8
2016-12-22T07:03:55.238Z,44.09
2016-12-22T07:04:55.268Z,44.19
2016-12-22T07:05:55.299Z,43.8
2016-12-22T07:06:55.020Z,43.9
2016-12-22T07:07:55.344Z,43.99
2016-12-22T07:08:55.069Z,43.71
2016-12-22T07:09:55.399Z,43.9
2016-12-22T07:10:55.426Z,43.71
2016-12-22T07:11:55.447Z,43.9
2016-12-22T07:12:55.484Z,43.71
2016-12-22T07:13:55.504Z,43.71
2016-12-22T07:14:55.236Z,43.8
2016-12-22T07:15:55.559Z,43.71
2016-12-22T07:16:55.291Z,43.63
2016-12-22T07:17:55.619Z,43.61
2016-12-22T07:18:55.637Z,43.73
2016-12-22T07:19:55.664Z,43.71
2016-12-22T07:20:55.686Z,44.02
2016-12-22T07:21:55.415Z,43.92
2016-12-22T07:22:55.448Z,43.82
2016-12-22T07:23:55.791Z,43.8
2016-12-22T07:24:55.497Z,43.82
2016-12-22T07:25:55.525Z,43.54
2016-12-22T07:26:55.863Z,43.63
2016-12-22T07:27:55.579Z,43.54
2016-12-22T07:28:55.912Z,43.73
2016-12-22T07:29:55.625Z,43.73
2016-12-22T07:30:55.657Z,43.63
2016-12-22T07:31:55.726Z,43.73
2016-12-22T07:32:55.712Z,43.82
2016-12-22T07:33:56.041Z,43.63
2016-12-22T07:34:56.069Z,43.34
2016-12-22T07:35:55.789Z,43.24
2016-12-22T07:36:55.822Z,43.05
2016-12-22T07:37:55.847Z,43.34
2016-12-22T07:38:56.176Z,43.34
2016-12-22T07:39:55.892Z,43.44
2016-12-22T07:40:55.925Z,43.34
2016-12-22T07:41:55.951Z,43.34
2016-12-22T07:42:55.988Z,43.15
2016-12-22T07:43:56.319Z,43.34
2016-12-22T07:44:56.335Z,43.15
2016-12-22T07:45:56.364Z,43.03
2016-12-22T07:46:56.088Z,43.23
2016-12-22T07:47:56.113Z,43.15
2016-12-22T07:48:56.142Z,43.24
2016-12-22T07:49:56.162Z,43.15
2016-12-22T07:50:56.194Z,43.24
2016-12-22T07:51:56.216Z,43.32
2016-12-22T07:52:56.249Z,43.15
2016-12-22T07:53:56.274Z,43.13
2016-12-22T07:54:56.603Z,43.23
2016-12-22T07:55:56.638Z,43.24
2016-12-22T07:56:56.655Z,43.13
2016-12-22T07:57:56.683Z,43.13
2016-12-22T07:58:56.408Z,43.13
2016-12-22T07:59:56.737Z,43.03
2016-12-22T08:00:56.762Z,43.13
2016-12-22T08:01:56.790Z,43.03
2016-12-22T08:02:56.514Z,43.13
2016-12-22T08:03:56.844Z,43.32
2016-12-22T08:04:56.872Z,42.93
2016-12-22T08:05:56.589Z,43.23
2016-12-22T08:06:56.613Z,42.74
2016-12-22T08:07:56.954Z,42.93
2016-12-22T08:08:56.671Z,42.84
2016-12-22T08:09:57.009Z,43.03
2016-12-22T08:10:56.728Z,42.93
2016-12-22T08:11:57.058Z,42.93
2016-12-22T08:12:56.781Z,43.13
2016-12-22T08:13:56.810Z,43.13
2016-12-22T08:14:56.839Z,43.23
2016-12-22T08:15:57.159Z,43.23
2016-12-22T08:16:56.883Z,43.23
2016-12-22T08:17:56.912Z,43.23
2016-12-22T08:18:56.933Z,42.46
2016-12-22T08:19:56.977Z,43.13
2016-12-22T08:20:56.994Z,43.13
2016-12-22T08:21:57.027Z,42.74
2016-12-22T08:22:57.347Z,42.84
2016-12-22T08:23:57.077Z,42.93
2016-12-22T08:24:57.408Z,42.93
2016-12-22T08:25:57.424Z,43.13
2016-12-22T08:26:57.149Z,42.55
2016-12-22T08:27:57.178Z,42.93
2016-12-22T08:28:57.206Z,43.32
2016-12-22T08:29:57.232Z,43.23
2016-12-22T08:30:57.266Z,44.09
2016-12-22T08:31:57.288Z,44.09
2016-12-22T08:32:57.621Z,44.19
2016-12-22T08:33:57.338Z,44.09
2016-12-22T08:34:57.674Z,44.28
2016-12-22T08:35:57.731Z,44.38
2016-12-22T08:36:57.816Z,44.86
2016-12-22T08:37:57.760Z,44.67
2016-12-22T08:38:57.785Z,44.74
2016-12-22T08:39:57.805Z,44.67
2016-12-22T08:40:57.530Z,44.65
2016-12-22T08:41:57.554Z,44.65
2016-12-22T08:42:57.574Z,44.35
2016-12-22T08:43:57.603Z,44.17
2016-12-22T08:44:57.624Z,44.35
2016-12-22T08:45:57.966Z,44.96
2016-12-22T08:46:57.689Z,44.45
2016-12-22T08:47:58.018Z,44.26
2016-12-22T08:48:58.042Z,44.74
2016-12-22T08:49:58.076Z,44.74
2016-12-22T08:50:58.088Z,44.84
2016-12-22T08:51:58.119Z,44.76
2016-12-22T08:52:57.840Z,44.76
2016-12-22T08:53:58.177Z,44.65
2016-12-22T08:54:58.210Z,44.45
2016-12-22T08:55:58.232Z,44.45
2016-12-22T08:56:57.956Z,44.45
2016-12-22T08:57:58.285Z,44.45
2016-12-22T08:58:58.010Z,44.74
2016-12-22T08:59:58.038Z,44.55
2016-12-22T09:00:58.363Z,44.35
2016-12-22T09:01:58.104Z,44.74
2016-12-22T09:02:58.116Z,44.26
2016-12-22T09:03:58.145Z,44.74
2016-12-22T09:04:58.470Z,44.93
2016-12-22T09:05:58.199Z,44.93
2016-12-22T09:06:58.532Z,45.03
2016-12-22T09:07:58.248Z,45.13
2016-12-22T09:08:58.579Z,44.93
2016-12-22T09:09:58.306Z,45.03
2016-12-22T09:10:58.335Z,45.22
2016-12-22T09:11:58.355Z,45.13
2016-12-22T09:12:58.388Z,45.13
2016-12-22T09:13:58.409Z,45.42
2016-12-22T09:14:58.434Z,45.32
2016-12-22T09:15:58.463Z,45.22
2016-12-22T09:16:58.489Z,45.03
2016-12-22T09:19:58.512Z,45.7
2016-12-22T09:22:20.583Z,45.32
2016-12-22T09:23:19.952Z,43.78
2016-12-22T09:24:20.281Z,40.8
2016-12-22T09:25:20.313Z,42.05
2016-12-22T09:26:20.338Z,42.5
2016-12-22T09:27:20.363Z,41.45
2016-12-22T09:28:20.392Z,42.39
2016-12-22T09:29:20.104Z,40.66
2016-12-22T09:30:20.137Z,40.56
2016-12-22T09:31:20.474Z,40.47
2016-12-22T09:32:20.191Z,39.78
2016-12-22T09:33:20.520Z,40.83
2016-12-22T09:34:20.549Z,40.16
2016-12-22T09:35:20.265Z,39.68
2016-12-22T09:36:20.602Z,39.68
2016-12-22T09:37:20.622Z,41.1
2016-12-22T09:38:20.355Z,41.1
2016-12-22T09:39:20.380Z,41.17
2016-12-22T09:40:20.701Z,41.08
2016-12-22T09:41:20.430Z,41.85
2016-12-22T09:42:20.750Z,42.33
2016-12-22T09:43:20.476Z,42.88
2016-12-22T09:44:20.812Z,43.07
2016-12-22T09:45:20.530Z,43
2016-12-22T09:46:20.554Z,42.79
2016-12-22T09:47:20.890Z,42.5
2016-12-22T09:48:20.915Z,42.5
2016-12-22T09:49:20.640Z,42.4
2016-12-22T09:50:20.961Z,45.09
2016-12-22T09:51:20.690Z,44.61
2016-12-22T09:52:20.714Z,45.78
2016-12-22T09:53:21.033Z,46.24
2016-12-22T09:54:20.764Z,46.84
2016-12-22T09:55:20.792Z,46.45
2016-12-22T09:56:21.121Z,46.17
2016-12-22T09:57:20.842Z,46.17
2016-12-22T09:58:20.866Z,46.28
2016-12-22T09:59:20.891Z,46
2016-12-22T10:00:21.220Z,45.81
2016-12-22T10:01:20.939Z,46.09
2016-12-22T10:02:20.963Z,45.9
2016-12-22T10:03:20.998Z,45.73
2016-12-22T10:04:21.327Z,44.96
2016-12-22T10:05:21.348Z,45.35
2016-12-22T10:06:21.372Z,44.96
2016-12-22T10:07:21.093Z,45.15
2016-12-22T10:08:21.434Z,44.96
2016-12-22T10:09:21.149Z,44.77
2016-12-22T10:10:21.181Z,44.31
2016-12-22T10:11:21.512Z,44.41
2016-12-22T10:12:21.529Z,44.7
2016-12-22T10:13:21.554Z,44.7
2016-12-22T10:14:21.587Z,44.51
2016-12-22T10:15:21.311Z,44.02
2016-12-22T10:16:21.640Z,44.12
2016-12-22T10:17:21.357Z,44.12
2016-12-22T10:18:21.383Z,44.02
2016-12-22T10:19:21.725Z,44.02
2016-12-22T10:20:21.748Z,44.02
2016-12-22T10:21:21.460Z,44.22
2016-12-22T10:22:21.493Z,44.41
2016-12-22T10:23:21.514Z,44.41
2016-12-22T10:24:21.543Z,44.22
2016-12-22T10:25:21.571Z,44.31
2016-12-22T10:26:21.597Z,44.02
2016-12-22T10:27:21.625Z,44.31
2016-12-22T10:28:21.954Z,44.34
2016-12-22T10:29:21.671Z,44.43
2016-12-22T10:30:22.011Z,44.43
2016-12-22T10:31:21.724Z,44.34
2016-12-22T10:32:22.086Z,44.62
2016-12-22T10:33:21.787Z,44.53
2016-12-22T10:34:22.115Z,44.62
2016-12-22T10:35:22.140Z,44.72
2016-12-22T10:36:21.856Z,44.62
2016-12-22T10:37:22.182Z,44.24
2016-12-22T10:38:21.914Z,44.34
2016-12-22T10:39:22.242Z,44.14
2016-12-22T10:40:22.267Z,44.24
2016-12-22T10:41:21.988Z,44.24
2016-12-22T10:42:22.321Z,44.05
2016-12-22T10:43:22.051Z,44.14
2016-12-22T10:44:22.075Z,44.05
2016-12-22T10:45:22.091Z,44.14
2016-12-22T10:46:22.125Z,43.85
2016-12-22T10:47:22.149Z,44.05
2016-12-22T10:48:22.486Z,44.24
2016-12-22T10:49:22.203Z,44.14
2016-12-22T10:50:22.533Z,44.24
2016-12-22T10:51:22.563Z,44.34
2016-12-22T10:52:22.580Z,44.24
2016-12-22T10:53:22.609Z,44.53
2016-12-22T10:54:22.339Z,44.72
2016-12-22T10:55:22.663Z,44.72
2016-12-22T10:56:22.695Z,44.43
2016-12-22T10:57:22.713Z,44.43
2016-12-22T10:58:22.446Z,44.43
2016-12-22T10:59:22.782Z,44.62
2016-12-22T11:00:22.491Z,44.43
2016-12-22T11:01:22.824Z,44.43
2016-12-22T11:02:22.544Z,44.62
2016-12-22T11:03:22.573Z,44.43
2016-12-22T11:04:22.590Z,44.72
2016-12-22T11:05:22.627Z,44.53
2016-12-22T11:06:22.960Z,44.72
2016-12-22T11:07:22.684Z,44.34
2016-12-22T11:08:23.009Z,44.53
2016-12-22T11:09:23.034Z,44.34
2016-12-22T11:10:23.055Z,45.2
2016-12-22T11:11:23.079Z,45.87
2016-12-22T11:12:23.113Z,46.36
2016-12-22T11:13:23.141Z,47.13
2016-12-22T11:14:22.866Z,47.31
2016-12-22T11:15:22.890Z,47.99
2016-12-22T11:16:23.223Z,48.38
2016-12-22T11:17:23.243Z,48.47
2016-12-22T11:18:22.968Z,48.66
2016-12-22T11:19:22.994Z,48.95
2016-12-22T11:20:23.022Z,49.05
2016-12-22T11:21:23.354Z,48.76
2016-12-22T11:22:23.080Z,49.24
2016-12-22T11:23:23.405Z,48.85
2016-12-22T11:24:23.429Z,49.15
2016-12-22T11:25:23.472Z,49.05
2016-12-22T11:26:23.483Z,48.95
2016-12-22T11:27:23.207Z,48.85
2016-12-22T11:28:23.538Z,49.15
2016-12-22T11:29:23.561Z,49.05
2016-12-22T11:30:23.590Z,49.53
2016-12-22T11:31:23.618Z,49.43
2016-12-22T11:32:23.655Z,49.33
2016-12-22T11:33:23.360Z,49.53
2016-12-22T11:34:23.392Z,49.33
2016-12-22T11:35:23.414Z,49.82
2016-12-22T11:36:23.750Z,49.53
2016-12-22T11:37:23.475Z,49.82
2016-12-22T11:38:23.499Z,49.72
2016-12-22T11:39:23.828Z,50.3
2016-12-22T11:40:23.866Z,49.91
2016-12-22T11:41:23.574Z,50.1
2016-12-22T11:42:23.921Z,49.91
2016-12-22T11:43:23.935Z,50.01
2016-12-22T11:44:23.659Z,49.72
2016-12-22T11:45:23.693Z,50.3
2016-12-22T11:46:23.713Z,50.3
2016-12-22T11:47:24.044Z,50.3
2016-12-22T11:48:23.764Z,50.01
2016-12-22T11:49:24.098Z,50.2
2016-12-22T11:50:23.812Z,50.1
2016-12-22T11:51:23.845Z,50.01
2016-12-22T11:52:23.870Z,50.01
2016-12-22T11:53:24.201Z,50.1
2016-12-22T11:54:23.923Z,50.2
2016-12-22T11:55:23.956Z,50.1
2016-12-22T11:56:23.977Z,50.3
2016-12-22T11:57:24.309Z,50.2
2016-12-22T11:58:24.330Z,50.97
2016-12-22T11:59:24.051Z,50.78
2016-12-22T12:00:24.381Z,50.87
2016-12-22T12:01:24.108Z,50.87
2016-12-22T12:02:24.440Z,50.4
2016-12-22T12:03:24.162Z,50.78
2016-12-22T12:04:24.499Z,50.59
2016-12-22T12:05:24.519Z,51.26
2016-12-22T12:06:24.548Z,51.26
2016-12-22T12:07:24.574Z,51.26
2016-12-22T12:08:24.293Z,50.97
2016-12-22T12:09:24.626Z,51.17
2016-12-22T12:10:24.347Z,51.17
2016-12-22T12:11:24.372Z,51.07
2016-12-22T12:12:24.402Z,50.97
2016-12-22T12:13:24.733Z,50.97
2016-12-22T12:14:24.761Z,51.26
2016-12-22T12:15:24.470Z,51.07
2016-12-22T12:16:24.815Z,51.26
2016-12-22T12:17:24.832Z,51.26
2016-12-22T12:18:24.865Z,51.26
2016-12-22T12:19:24.581Z,51.07
2016-12-22T12:20:24.916Z,50.78
2016-12-22T12:21:24.944Z,51.84
2016-12-22T12:22:24.961Z,51.74
2016-12-22T12:23:24.993Z,51.07
2016-12-22T12:24:24.711Z,51.55
2016-12-22T12:25:24.746Z,51.33
2016-12-22T12:26:25.070Z,51.45
2016-12-22T12:27:24.794Z,51.74
2016-12-22T12:28:25.124Z,51.53
2016-12-22T12:29:25.153Z,52.12
2016-12-22T12:30:24.876Z,52.03
2016-12-22T12:31:24.898Z,52.12
2016-12-22T12:32:25.234Z,52.12
2016-12-22T12:33:24.951Z,51.93
2016-12-22T12:34:25.284Z,52.22
2016-12-22T12:35:25.009Z,52.03
2016-12-22T12:36:25.333Z,52.32
2016-12-22T12:37:25.363Z,52.48
2016-12-22T12:38:25.083Z,52.61
2016-12-22T12:39:25.111Z,52.42
2016-12-22T12:40:25.140Z,52.42
2016-12-22T12:41:25.477Z,52.32
2016-12-22T12:42:25.192Z,52.51
2016-12-22T12:43:25.210Z,52.42
2016-12-22T12:44:25.251Z,52.61
2016-12-22T12:45:25.575Z,52.32
2016-12-22T12:46:25.304Z,52.42
2016-12-22T12:47:25.321Z,52.61
2016-12-22T12:48:25.657Z,52.61
2016-12-22T12:49:25.379Z,52.58
2016-12-22T12:50:25.411Z,52.48
2016-12-22T12:51:25.732Z,52.61
2016-12-22T12:52:25.452Z,52.99
2016-12-22T12:53:25.788Z,52.58
2016-12-22T12:54:25.506Z,52.61
2016-12-22T12:55:25.538Z,52.7
2016-12-22T12:56:25.560Z,52.51
2016-12-22T12:57:25.592Z,52.51
2016-12-22T12:58:25.920Z,52.48
2016-12-22T12:59:25.641Z,52.58
2016-12-22T13:00:25.663Z,52.7